createdAt,value
2022-12-09T00:01:23.201Z,86458.38
2022-12-09T00:03:51.013Z,86462.31
2022-12-09T00:06:25.568Z,86463.22
2022-12-09T00:08:53.874Z,86456.25
2022-12-09T00:11:22.449Z,86453.97
2022-12-09T00:13:52.427Z,86451.69
2022-12-09T00:16:21.387Z,86452.72
2022-12-09T00:18:50.035Z,86459.38
2022-12-09T00:21:24.176Z,86455.88
2022-12-09T00:23:54.837Z,86447.84
2022-12-09T00:26:24.459Z,86458.47
2022-12-09T00:28:52.828Z,86452.25
2022-12-09T00:31:28.251Z,86458.91
2022-12-09T00:34:05.526Z,86457.81
2022-12-09T00:36:33.388Z,86441.78
2022-12-09T00:39:00.988Z,86450.09
2022-12-09T00:41:29.437Z,86450.38
2022-12-09T00:43:58.360Z,86456.41
2022-12-09T00:46:26.059Z,86452.34
2022-12-09T00:48:53.362Z,86460.94
2022-12-09T00:51:24.209Z,86451.41
2022-12-09T00:53:52.792Z,86439.59
2022-12-09T00:56:24.831Z,86452.34
2022-12-09T00:58:52.755Z,86450.97
2022-12-09T01:01:20.405Z,86452.91
2022-12-09T01:03:47.800Z,86452.47
2022-12-09T01:06:20.238Z,86450.53
2022-12-09T01:08:48.209Z,86452.19
2022-12-09T01:11:23.858Z,86456.25
2022-12-09T01:13:52.394Z,86447.16
2022-12-09T01:16:26.655Z,86446.84
2022-12-09T01:18:56.092Z,86445.91
2022-12-09T01:21:23.548Z,86449.25
2022-12-09T01:23:50.891Z,86442.72
2022-12-09T01:26:18.495Z,86442.53
2022-12-09T01:28:46.016Z,86435.09
2022-12-09T01:31:18.248Z,86433.56
2022-12-09T01:33:46.489Z,86437.50
2022-12-09T01:36:24.579Z,86432.34
2022-12-09T01:38:52.617Z,86436.09
2022-12-09T01:41:22.209Z,86439.56
2022-12-09T01:44:19.564Z,86433.66
2022-12-09T01:46:48.389Z,86435.03
2022-12-09T01:49:29.050Z,86437.72
2022-12-09T01:52:22.582Z,86433.47
2022-12-09T01:54:52.925Z,86427.69
2022-12-09T01:57:20.664Z,86431.88
2022-12-09T01:59:48.458Z,86425.94
2022-12-09T02:02:20.411Z,86428.81
2022-12-09T02:04:50.440Z,86428.81
2022-12-09T02:07:19.306Z,86427.00
2022-12-09T02:09:47.187Z,86420.16
2022-12-09T02:12:33.725Z,86410.59
2022-12-09T02:15:12.390Z,86411.78
2022-12-09T02:17:58.399Z,86409.34
2022-12-09T02:20:48.984Z,86410.22
2022-12-09T02:23:29.142Z,86407.97
2022-12-09T02:26:30.350Z,86406.28
2022-12-09T02:29:07.268Z,86409.47
2022-12-09T02:32:19.221Z,86402.94
2022-12-09T02:35:05.492Z,86402.19
2022-12-09T02:38:00.773Z,86398.84
2022-12-09T02:41:06.983Z,86396.72
2022-12-09T02:43:46.660Z,86399.75
2022-12-09T02:46:21.751Z,86390.16
2022-12-09T02:48:56.697Z,86386.19
2022-12-09T02:51:29.815Z,86382.25
2022-12-09T02:54:05.397Z,86375.72
2022-12-09T02:56:34.268Z,86376.91
2022-12-09T02:59:02.503Z,86382.16
2022-12-09T03:01:42.896Z,86372.31
2022-12-09T03:04:18.682Z,86370.16
2022-12-09T03:06:56.048Z,86372.09
2022-12-09T03:09:32.010Z,86366.94
2022-12-09T03:12:07.705Z,86361.91
2022-12-09T03:14:52.983Z,86360.63
2022-12-09T03:17:37.830Z,86357.09
2022-12-09T03:20:24.967Z,86359.50
2022-12-09T03:22:59.012Z,86358.09
2022-12-09T03:25:40.558Z,86352.63
2022-12-09T03:28:17.689Z,86338.66
2022-12-09T03:30:47.590Z,86339.94
2022-12-09T03:33:19.051Z,86332.22
2022-12-09T03:35:58.220Z,86328.56
2022-12-09T03:38:32.729Z,86329.72
2022-12-09T03:41:32.746Z,86327.28
2022-12-09T03:44:09.697Z,86320.94
2022-12-09T03:46:37.777Z,86312.56
2022-12-09T03:49:06.286Z,86318.91
2022-12-09T03:52:00.215Z,86304.28
2022-12-09T03:54:35.473Z,86310.63
2022-12-09T03:57:04.155Z,86305.56
2022-12-09T03:59:34.992Z,86290.94
2022-12-09T04:02:02.776Z,86289.34
2022-12-09T04:04:30.565Z,86280.31
2022-12-09T04:06:58.291Z,86284.19
2022-12-09T04:09:25.990Z,86277.72
2022-12-09T04:11:53.300Z,86275.56
2022-12-09T04:14:20.599Z,86276.00
2022-12-09T04:16:48.209Z,86269.44
2022-12-09T04:19:15.646Z,86270.28
2022-12-09T04:21:43.321Z,86267.28
2022-12-09T04:24:10.827Z,86257.38
2022-12-09T04:26:38.190Z,86243.63
2022-12-09T04:29:05.647Z,86250.59
2022-12-09T04:31:33.599Z,86245.78
2022-12-09T04:34:06.775Z,86249.00
2022-12-09T04:36:36.585Z,86251.50
2022-12-09T04:39:04.228Z,86246.31
2022-12-09T04:41:31.915Z,86256.22
2022-12-09T04:43:59.359Z,86249.97
2022-12-09T04:46:26.857Z,86256.22
2022-12-09T04:48:54.197Z,86253.00
2022-12-09T04:51:21.388Z,86246.31
2022-12-09T04:53:48.760Z,86240.84
2022-12-09T04:56:21.623Z,86238.25
2022-12-09T04:58:51.206Z,86235.66
2022-12-09T05:01:29.843Z,86230.09
2022-12-09T05:03:59.637Z,86227.50
2022-12-09T05:06:27.498Z,86215.44
2022-12-09T05:08:55.702Z,86218.03
2022-12-09T05:11:23.871Z,86218.16
2022-12-09T05:13:54.051Z,86208.25
2022-12-09T05:16:22.659Z,86207.91
2022-12-09T05:18:50.684Z,86195.00
2022-12-09T05:21:21.087Z,86204.69
2022-12-09T05:23:49.411Z,86199.59
2022-12-09T05:26:21.510Z,86182.41
2022-12-09T05:28:51.035Z,86180.00
2022-12-09T05:31:23.113Z,86167.19
2022-12-09T05:33:52.657Z,86174.28
2022-12-09T05:36:25.421Z,86179.44
2022-12-09T05:38:54.075Z,86168.34
2022-12-09T05:41:23.142Z,86170.59
2022-12-09T05:43:51.967Z,86174.69
2022-12-09T05:46:20.650Z,86160.69
2022-12-09T05:48:48.337Z,86168.84
2022-12-09T05:51:26.275Z,86167.78
2022-12-09T05:53:55.095Z,86170.78
2022-12-09T05:56:25.246Z,86174.47
2022-12-09T05:58:54.648Z,86177.47
2022-12-09T06:01:23.601Z,86173.16
2022-12-09T06:03:53.417Z,86167.97
2022-12-09T06:06:24.730Z,86161.97
2022-12-09T06:08:57.910Z,86173.47
2022-12-09T06:11:26.866Z,86166.47
2022-12-09T06:13:55.373Z,86169.06
2022-12-09T06:16:23.547Z,86155.41
2022-12-09T06:18:51.654Z,86155.06
2022-12-09T06:21:21.277Z,86149.56
2022-12-09T06:23:50.791Z,86152.56
2022-12-09T06:26:26.157Z,86159.59
2022-12-09T06:28:55.007Z,86163.31
2022-12-09T06:31:23.419Z,86160.72
2022-12-09T06:33:55.440Z,86136.41
2022-12-09T06:36:24.353Z,86142.00
2022-12-09T06:38:54.065Z,86142.75
2022-12-09T06:41:21.406Z,86142.75
2022-12-09T06:43:49.492Z,86135.09
2022-12-09T06:46:25.020Z,86136.25
2022-12-09T06:48:56.618Z,86143.09
2022-12-09T06:51:26.097Z,86134.25
2022-12-09T06:53:54.728Z,86138.09
2022-12-09T06:56:23.445Z,86127.03
2022-12-09T06:58:51.307Z,86127.84
2022-12-09T07:01:25.248Z,86135.03
2022-12-09T07:03:57.115Z,86133.28
2022-12-09T07:06:41.030Z,86146.72
2022-12-09T07:09:20.895Z,86131.69
2022-12-09T07:11:49.615Z,86125.53
2022-12-09T07:14:18.640Z,86120.69
2022-12-09T07:16:47.151Z,86117.34
2022-12-09T07:19:21.468Z,86108.19
2022-12-09T07:21:51.039Z,86111.53
2022-12-09T07:24:22.589Z,86105.38
2022-12-09T07:26:58.531Z,86094.78
2022-12-09T07:29:28.269Z,86098.84
2022-12-09T07:31:55.813Z,86094.44
2022-12-09T07:34:30.820Z,86101.78
2022-12-09T07:36:58.675Z,86096.34
2022-12-09T07:39:29.245Z,86089.78
2022-12-09T07:41:57.888Z,86083.50
2022-12-09T07:44:26.816Z,86080.25
2022-12-09T07:46:55.830Z,86097.75
2022-12-09T07:49:24.155Z,86098.59
2022-12-09T07:51:53.073Z,86088.59
2022-12-09T07:54:22.085Z,86086.91
2022-12-09T07:56:49.893Z,86077.72
2022-12-09T07:59:17.748Z,86065.53
2022-12-09T08:01:45.395Z,86065.63
2022-12-09T08:04:14.399Z,86055.28
2022-12-09T08:06:42.607Z,86061.63
2022-12-09T08:09:13.733Z,86069.09
2022-12-09T08:11:41.758Z,86081.34
2022-12-09T08:14:13.042Z,86073.25
2022-12-09T08:16:43.637Z,86074.00
2022-12-09T08:19:12.207Z,86077.00
2022-12-09T08:21:41.702Z,86066.25
2022-12-09T08:24:12.753Z,86080.00
2022-12-09T08:26:41.090Z,86083.44
2022-12-09T08:29:12.315Z,86079.75
2022-12-09T08:31:43.647Z,86081.25
2022-12-09T08:34:12.238Z,86069.81
2022-12-09T08:36:40.110Z,86062.44
2022-12-09T08:39:09.312Z,86048.84
2022-12-09T08:41:39.125Z,86056.66
2022-12-09T08:44:18.794Z,86050.06
2022-12-09T08:46:50.153Z,86049.00
2022-12-09T08:49:21.042Z,86051.63
2022-12-09T08:51:51.025Z,86048.38
2022-12-09T08:54:18.992Z,86049.13
2022-12-09T08:56:48.475Z,86043.69
2022-12-09T08:59:16.984Z,86051.09
2022-12-09T09:01:45.572Z,86048.88
2022-12-09T09:04:18.128Z,86055.13
2022-12-09T09:06:48.612Z,86060.72
2022-12-09T09:09:17.700Z,86060.34
2022-12-09T09:11:45.690Z,86054.09
2022-12-09T09:14:15.808Z,86051.56
2022-12-09T09:16:45.586Z,86051.66
2022-12-09T09:19:21.602Z,86055.06
2022-12-09T09:21:49.989Z,86056.88
2022-12-09T09:24:21.369Z,86054.72
2022-12-09T09:26:52.451Z,86056.88
2022-12-09T09:29:22.844Z,86051.72
2022-12-09T09:31:51.188Z,86052.88
2022-12-09T09:34:18.917Z,86051.13
2022-12-09T09:36:47.625Z,86044.16
2022-12-09T09:39:15.414Z,86046.00
2022-12-09T09:41:58.187Z,86038.97
2022-12-09T09:44:38.888Z,86033.81
2022-12-09T09:47:17.784Z,86027.50
2022-12-09T09:50:36.144Z,86024.19
2022-12-09T09:53:24.683Z,86024.25
2022-12-09T09:56:04.907Z,86023.50
2022-12-09T09:58:53.421Z,86021.31
2022-12-09T10:01:28.820Z,86017.63
2022-12-09T10:04:24.628Z,86018.72
2022-12-09T10:07:46.053Z,86011.34
2022-12-09T10:11:03.917Z,86011.34
2022-12-09T10:13:49.455Z,86009.88
2022-12-09T10:16:35.776Z,86001.00
2022-12-09T10:19:43.631Z,85994.34
2022-12-09T10:22:21.482Z,85988.47
2022-12-09T10:24:55.432Z,85971.47
2022-12-09T10:27:42.114Z,85971.47
2022-12-09T10:30:16.761Z,85960.38
2022-12-09T10:32:45.087Z,85956.69
2022-12-09T10:35:19.523Z,85955.25
2022-12-09T10:37:49.851Z,85949.41
2022-12-09T10:40:32.991Z,85938.75
2022-12-09T10:43:21.394Z,85936.19
2022-12-09T10:48:47.323Z,85918.13
2022-12-09T10:51:30.195Z,85924.13
2022-12-09T10:54:10.632Z,85915.63
2022-12-09T10:57:05.154Z,85916.38
2022-12-09T10:59:34.153Z,85912.72
2022-12-09T11:02:23.192Z,85908.69
2022-12-09T11:04:51.348Z,85897.97
2022-12-09T11:07:20.904Z,85910.22
2022-12-09T11:10:39.060Z,85910.22
2022-12-09T11:13:15.228Z,85893.56
2022-12-09T11:15:50.435Z,85897.69
2022-12-09T11:18:29.386Z,85900.66
2022-12-09T11:21:02.011Z,85900.31
2022-12-09T11:23:30.076Z,85899.25
2022-12-09T11:26:03.301Z,85895.22
2022-12-09T11:28:40.136Z,85898.97
2022-12-09T11:31:29.625Z,85885.63
2022-12-09T11:34:06.612Z,85884.50
2022-12-09T11:36:44.017Z,85889.69
2022-12-09T11:39:25.332Z,85875.28
2022-12-09T11:41:59.648Z,85863.06
2022-12-09T11:44:32.720Z,85848.66
2022-12-09T11:47:19.846Z,85844.66
2022-12-09T11:49:56.908Z,85843.69
2022-12-09T11:52:31.178Z,85840.81
2022-12-09T11:55:25.499Z,85840.22
2022-12-09T11:58:06.414Z,85836.56
2022-12-09T12:00:55.101Z,85825.53
2022-12-09T12:03:37.971Z,85823.00
2022-12-09T12:06:16.387Z,85807.84
2022-12-09T12:09:11.387Z,85800.50
2022-12-09T12:11:58.296Z,85803.09
2022-12-09T12:14:30.000Z,85805.69
2022-12-09T12:17:24.706Z,85794.22
2022-12-09T12:19:53.838Z,85799.06
2022-12-09T12:23:03.971Z,85797.59
2022-12-09T12:26:05.757Z,85777.94
2022-12-09T12:29:29.140Z,85771.63
2022-12-09T12:32:42.430Z,85756.81
2022-12-09T12:35:29.254Z,85763.91
2022-12-09T12:38:45.420Z,85761.69
2022-12-09T12:41:50.686Z,85760.94
2022-12-09T12:45:06.837Z,85756.19
2022-12-09T12:48:15.353Z,85756.94
2022-12-09T12:51:19.661Z,85751.00
2022-12-09T12:54:03.103Z,85734.66
2022-12-09T12:56:51.364Z,85728.72
2022-12-09T12:59:49.776Z,85730.97
2022-12-09T13:02:59.249Z,85729.84
2022-12-09T13:05:37.472Z,85725.38
2022-12-09T13:08:10.771Z,85720.25
2022-12-09T13:10:57.399Z,85722.16
2022-12-09T13:13:33.504Z,85709.22
2022-12-09T13:16:39.538Z,85704.41
2022-12-09T13:19:32.635Z,85697.75
2022-12-09T13:22:00.032Z,85692.53
2022-12-09T13:24:32.194Z,85693.28
2022-12-09T13:27:09.764Z,85702.19
2022-12-09T13:30:10.128Z,85695.53
2022-12-09T13:33:29.015Z,85694.72
2022-12-09T13:36:13.699Z,85691.75
2022-12-09T13:38:43.422Z,85685.81
2022-12-09T13:41:32.364Z,85688.44
2022-12-09T13:44:17.227Z,85694.78
2022-12-09T13:46:45.116Z,85686.59
2022-12-09T13:49:25.000Z,85687.38
2022-12-09T13:51:55.478Z,85690.34
2022-12-09T13:54:28.171Z,85697.06
2022-12-09T13:57:40.572Z,85696.69
2022-12-09T14:00:17.967Z,85696.34
2022-12-09T14:03:00.083Z,85681.16
2022-12-09T14:05:35.654Z,85689.69
2022-12-09T14:08:30.011Z,85676.34
2022-12-09T14:10:57.513Z,85679.31
2022-12-09T14:13:36.378Z,85677.47
2022-12-09T14:16:28.128Z,85681.22
2022-12-09T14:19:18.640Z,85680.09
2022-12-09T14:22:17.550Z,85677.91
2022-12-09T14:24:56.540Z,85677.88
2022-12-09T14:27:25.077Z,85660.06
2022-12-09T14:29:57.504Z,85668.25
2022-12-09T14:32:54.075Z,85671.19
2022-12-09T14:35:30.494Z,85684.56
2022-12-09T14:39:07.919Z,85672.34
2022-12-09T14:41:39.408Z,85654.50
2022-12-09T14:44:50.100Z,85662.31
2022-12-09T14:47:30.656Z,85663.06
2022-12-09T14:50:14.407Z,85661.56
2022-12-09T14:53:01.843Z,85658.63
2022-12-09T14:55:37.265Z,85660.09
2022-12-09T14:58:05.618Z,85656.78
2022-12-09T15:00:40.789Z,85657.50
2022-12-09T15:03:35.633Z,85659.72
2022-12-09T15:06:17.723Z,85648.25
2022-12-09T15:08:46.027Z,85651.94
2022-12-09T15:11:23.442Z,85650.47
2022-12-09T15:13:53.549Z,85647.50
2022-12-09T15:16:26.217Z,85638.59
2022-12-09T15:18:54.574Z,85637.47
2022-12-09T15:21:32.823Z,85644.13
2022-12-09T15:24:01.536Z,85638.19
2022-12-09T15:26:33.078Z,85628.91
2022-12-09T15:29:01.359Z,85633.38
2022-12-09T15:31:32.040Z,85623.00
2022-12-09T15:34:15.633Z,85621.47
2022-12-09T15:36:55.575Z,85619.25
2022-12-09T15:39:32.682Z,85616.28
2022-12-09T15:42:16.434Z,85617.75
2022-12-09T15:45:09.688Z,85622.56
2022-12-09T15:47:51.698Z,85611.41
2022-12-09T15:50:35.463Z,85607.34
2022-12-09T15:53:22.228Z,85605.09
2022-12-09T15:56:09.076Z,85617.72
2022-12-09T15:58:46.563Z,85601.41
2022-12-09T16:01:30.636Z,85610.28
2022-12-09T16:04:01.324Z,85608.06
2022-12-09T16:06:39.085Z,85608.09
2022-12-09T16:09:26.435Z,85622.19
2022-12-09T16:11:54.597Z,85611.41
2022-12-09T16:14:24.382Z,85623.31
2022-12-09T16:17:03.333Z,85631.84
2022-12-09T16:19:33.404Z,85622.56
2022-12-09T16:22:16.098Z,85627.78
2022-12-09T16:25:14.366Z,85616.28
2022-12-09T16:27:48.859Z,85631.84
2022-12-09T16:30:17.839Z,85644.09
2022-12-09T16:32:53.243Z,85644.09
2022-12-09T16:35:37.269Z,85649.28
2022-12-09T16:38:15.653Z,85642.59
2022-12-09T16:40:46.099Z,85638.53
2022-12-09T16:43:16.253Z,85647.06
2022-12-09T16:45:56.484Z,85643.38
2022-12-09T16:48:26.486Z,85647.41
2022-12-09T16:51:12.538Z,85650.03
2022-12-09T16:53:47.627Z,85649.66
2022-12-09T16:56:25.362Z,85645.97
2022-12-09T16:58:54.085Z,85643.38
2022-12-09T17:01:26.721Z,85631.53
2022-12-09T17:04:04.155Z,85622.59
2022-12-09T17:06:31.535Z,85631.91
2022-12-09T17:08:58.912Z,85640.06
2022-12-09T17:11:26.121Z,85637.47
2022-12-09T17:13:53.383Z,85635.97
2022-12-09T17:16:21.181Z,85622.22
2022-12-09T17:18:49.040Z,85621.50
2022-12-09T17:21:17.434Z,85624.50
2022-12-09T17:23:45.499Z,85618.91
2022-12-09T17:26:16.862Z,85613.34
2022-12-09T17:28:44.986Z,85617.78
2022-12-09T17:31:20.691Z,85606.69
2022-12-09T17:33:49.212Z,85604.09
2022-12-09T17:36:17.993Z,85609.31
2022-12-09T17:38:45.562Z,85611.16
2022-12-09T17:41:16.424Z,85608.19
2022-12-09T17:43:43.597Z,85609.69
2022-12-09T17:46:13.163Z,85615.28
2022-12-09T17:48:41.043Z,85620.81
2022-12-09T17:51:14.703Z,85623.06
2022-12-09T17:53:42.940Z,85609.69
2022-12-09T17:56:17.016Z,85605.59
2022-12-09T17:58:44.645Z,85609.69
2022-12-09T18:01:21.761Z,85619.34
2022-12-09T18:03:59.389Z,85623.41
2022-12-09T18:06:31.230Z,85621.56
2022-12-09T18:08:58.424Z,85628.22
2022-12-09T18:11:26.495Z,85630.44
2022-12-09T18:13:54.354Z,85637.47
2022-12-09T18:16:21.687Z,85635.25
2022-12-09T18:18:49.330Z,85644.56
2022-12-09T18:21:17.399Z,85642.72
2022-12-09T18:23:44.585Z,85649.00
2022-12-09T18:26:16.378Z,85650.13
2022-12-09T18:28:44.032Z,85648.63
2022-12-09T18:31:17.930Z,85657.94
2022-12-09T18:33:45.185Z,85654.94
2022-12-09T18:36:16.842Z,85654.56
2022-12-09T18:38:44.467Z,85653.81
2022-12-09T18:41:19.024Z,85653.81
2022-12-09T18:43:50.483Z,85649.75
2022-12-09T18:46:32.758Z,85650.50
2022-12-09T18:49:06.919Z,85651.97
2022-12-09T18:51:35.141Z,85655.34
2022-12-09T18:54:04.270Z,85660.53
2022-12-09T18:56:32.486Z,85656.09
2022-12-09T18:59:08.587Z,85654.56
2022-12-09T19:01:41.097Z,85659.06
2022-12-09T19:04:16.650Z,85665.00
2022-12-09T19:06:46.959Z,85662.03
2022-12-09T19:09:22.021Z,85662.41
2022-12-09T19:11:52.045Z,85664.63
2022-12-09T19:14:22.653Z,85666.47
2022-12-09T19:16:51.402Z,85660.94
2022-12-09T19:19:23.496Z,85668.75
2022-12-09T19:21:52.201Z,85678.03
2022-12-09T19:24:23.579Z,85677.28
2022-12-09T19:26:52.073Z,85679.94
2022-12-09T19:29:21.057Z,85680.66
2022-12-09T19:31:52.090Z,85686.59
2022-12-09T19:34:31.920Z,85681.78
2022-12-09T19:37:01.470Z,85692.19
2022-12-09T19:39:31.593Z,85689.97
2022-12-09T19:42:00.416Z,85684.75
2022-12-09T19:44:59.585Z,85689.25
2022-12-09T19:47:15.452Z,85685.91
2022-12-09T19:49:43.383Z,85686.66
2022-12-09T19:52:12.699Z,85691.84
2022-12-09T19:54:40.149Z,85688.13
2022-12-09T19:57:07.331Z,85695.56
2022-12-09T19:59:34.579Z,85707.44
2022-12-09T20:02:01.917Z,85700.34
2022-12-09T20:07:19.681Z,85688.88
2022-12-09T20:09:47.588Z,85698.16
2022-12-09T20:12:14.885Z,85700.03
2022-12-09T20:14:42.254Z,85701.84
2022-12-09T20:17:09.784Z,85701.47
2022-12-09T20:19:37.122Z,85707.81
2022-12-09T20:22:04.418Z,85699.97
2022-12-09T20:24:32.828Z,85709.25
2022-12-09T20:27:00.249Z,85715.56
2022-12-09T20:29:31.126Z,85715.94
2022-12-09T20:32:01.345Z,85715.94
2022-12-09T20:34:28.565Z,85711.47
2022-12-09T20:36:56.022Z,85715.13
2022-12-09T20:39:23.276Z,85716.63
2022-12-09T20:41:50.676Z,85714.78
2022-12-09T20:44:18.848Z,85712.19
2022-12-09T20:46:52.693Z,85702.94
2022-12-09T20:49:21.080Z,85705.91
2022-12-09T20:51:48.260Z,85714.81
2022-12-09T20:54:15.498Z,85712.97
2022-12-09T20:56:42.839Z,85713.72
2022-12-09T20:59:12.528Z,85712.97
2022-12-09T21:01:40.552Z,85715.94
2022-12-09T21:04:08.465Z,85718.91
2022-12-09T21:06:39.652Z,85728.56
2022-12-09T21:09:16.733Z,85721.91
2022-12-09T21:11:44.373Z,85719.66
2022-12-09T21:14:12.924Z,85724.88
2022-12-09T21:16:42.573Z,85727.81
2022-12-09T21:19:15.599Z,85730.00
2022-12-09T21:21:45.662Z,85733.31
2022-12-09T21:24:17.614Z,85740.41
2022-12-09T21:26:45.618Z,85740.03
2022-12-09T21:29:14.720Z,85747.13
2022-12-09T21:31:42.923Z,85740.78
2022-12-09T21:34:10.712Z,85741.91
2022-12-09T21:36:41.887Z,85737.81
2022-12-09T21:39:13.573Z,85733.00
2022-12-09T21:41:42.342Z,85739.69
2022-12-09T21:44:18.160Z,85747.13
2022-12-09T21:46:46.221Z,85745.63
2022-12-09T21:49:14.101Z,85746.75
2022-12-09T21:51:42.265Z,85753.06
2022-12-09T21:54:09.606Z,85756.06
2022-12-09T21:56:37.242Z,85749.78
2022-12-09T21:59:07.430Z,85754.59
2022-12-09T22:01:41.345Z,85749.06
2022-12-09T22:04:12.746Z,85755.34
2022-12-09T22:06:48.465Z,85752.03
2022-12-09T22:09:17.975Z,85752.75
2022-12-09T22:11:45.367Z,85749.06
2022-12-09T22:14:12.778Z,85752.78
2022-12-09T22:16:44.187Z,85753.16
2022-12-09T22:19:20.537Z,85753.56
2022-12-09T22:21:48.917Z,85754.69
2022-12-09T22:24:17.371Z,85755.41
2022-12-09T22:26:45.011Z,85758.00
2022-12-09T22:29:15.726Z,85746.47
2022-12-09T22:31:44.412Z,85746.84
2022-12-09T22:34:16.863Z,85740.56
2022-12-09T22:36:45.473Z,85742.78
2022-12-09T22:39:17.594Z,85740.50
2022-12-09T22:41:45.913Z,85731.97
2022-12-09T22:44:18.435Z,85736.06
2022-12-09T22:46:46.562Z,85723.41
2022-12-09T22:49:15.844Z,85724.53
2022-12-09T22:51:44.450Z,85725.63
2022-12-09T22:54:12.279Z,85729.31
2022-12-09T22:56:42.667Z,85731.16
2022-12-09T22:59:11.120Z,85741.91
2022-12-09T23:01:38.633Z,85745.59
2022-12-09T23:04:08.124Z,85743.75
2022-12-09T23:06:38.589Z,85740.03
2022-12-09T23:09:09.710Z,85733.72
2022-12-09T23:11:37.237Z,85733.69
2022-12-09T23:14:04.731Z,85730.00
2022-12-09T23:16:31.931Z,85730.34
2022-12-09T23:18:59.745Z,85732.19
2022-12-09T23:21:35.711Z,85735.91
2022-12-09T23:24:07.700Z,85740.34
2022-12-09T23:26:38.665Z,85738.88
2022-12-09T23:29:11.693Z,85740.34
2022-12-09T23:31:39.954Z,85740.31
2022-12-09T23:34:09.256Z,85738.06
2022-12-09T23:36:40.867Z,85731.00
2022-12-09T23:39:12.437Z,85739.16
2022-12-09T23:41:42.107Z,85733.59
2022-12-09T23:44:12.807Z,85745.81
2022-12-09T23:46:40.953Z,85735.38
2022-12-09T23:49:09.275Z,85737.25
2022-12-09T23:51:40.823Z,85735.38
2022-12-09T23:54:09.421Z,85733.53
2022-12-09T23:56:40.364Z,85734.59
2022-12-09T23:59:11.876Z,85734.22
